sensor_id;sensor_type;location;lat;lon;timestamp;temperature;humidity
12948;DHT22;6539;49.476;8.484;2022-09-12T00:01:14;18.50;99.90
12948;DHT22;6539;49.476;8.484;2022-09-12T00:03:45;18.90;99.90
12948;DHT22;6539;49.476;8.484;2022-09-12T00:06:34;18.60;99.90
12948;DHT22;6539;49.476;8.484;2022-09-12T00:09:07;18.90;99.90
12948;DHT22;6539;49.476;8.484;2022-09-12T00:11:38;18.90;99.90
12948;DHT22;6539;49.476;8.484;2022-09-12T00:14:11;19.00;99.90
12948;DHT22;6539;49.476;8.484;2022-09-12T00:16:39;18.80;99.90
12948;DHT22;6539;49.476;8.484;2022-09-12T00:19:10;19.10;99.90
12948;DHT22;6539;49.476;8.484;2022-09-12T00:21:40;18.70;99.90
12948;DHT22;6539;49.476;8.484;2022-09-12T00:24:07;18.60;99.90
12948;DHT22;6539;49.476;8.484;2022-09-12T00:26:33;18.80;99.90
12948;DHT22;6539;49.476;8.484;2022-09-12T00:28:59;18.30;99.90
12948;DHT22;6539;49.476;8.484;2022-09-12T00:31:25;18.70;99.90
12948;DHT22;6539;49.476;8.484;2022-09-12T00:33:58;18.80;99.90
12948;DHT22;6539;49.476;8.484;2022-09-12T00:36:28;18.50;99.90
12948;DHT22;6539;49.476;8.484;2022-09-12T00:38:57;18.40;99.90
12948;DHT22;6539;49.476;8.484;2022-09-12T00:41:38;18.70;99.90
12948;DHT22;6539;49.476;8.484;2022-09-12T00:52:12;18.50;99.90
12948;DHT22;6539;49.476;8.484;2022-09-12T00:57:53;18.20;99.90
12948;DHT22;6539;49.476;8.484;2022-09-12T01:00:24;18.30;99.90
12948;DHT22;6539;49.476;8.484;2022-09-12T01:02:57;18.40;99.90
12948;DHT22;6539;49.476;8.484;2022-09-12T01:05:27;18.00;99.90
12948;DHT22;6539;49.476;8.484;2022-09-12T01:08:00;18.20;99.90
12948;DHT22;6539;49.476;8.484;2022-09-12T01:10:28;18.40;99.90
12948;DHT22;6539;49.476;8.484;2022-09-12T01:12:54;18.10;99.90
12948;DHT22;6539;49.476;8.484;2022-09-12T01:15:20;18.50;99.90
12948;DHT22;6539;49.476;8.484;2022-09-12T01:17:58;18.20;99.90
12948;DHT22;6539;49.476;8.484;2022-09-12T01:30:40;18.10;99.90
12948;DHT22;6539;49.476;8.484;2022-09-12T01:40:42;18.30;99.90
12948;DHT22;6539;49.476;8.484;2022-09-12T01:43:18;17.90;99.90
12948;DHT22;6539;49.476;8.484;2022-09-12T01:45:59;18.00;99.90
12948;DHT22;6539;49.476;8.484;2022-09-12T01:48:38;17.90;99.90
12948;DHT22;6539;49.476;8.484;2022-09-12T01:51:37;17.90;99.90
12948;DHT22;6539;49.476;8.484;2022-09-12T01:54:47;18.00;99.90
12948;DHT22;6539;49.476;8.484;2022-09-12T01:57:23;17.80;99.90
12948;DHT22;6539;49.476;8.484;2022-09-12T01:59:58;17.80;99.90
12948;DHT22;6539;49.476;8.484;2022-09-12T02:02:38;17.90;99.90
12948;DHT22;6539;49.476;8.484;2022-09-12T02:05:11;17.60;99.90
12948;DHT22;6539;49.476;8.484;2022-09-12T02:08:01;18.00;99.90
12948;DHT22;6539;49.476;8.484;2022-09-12T02:10:37;17.80;99.90
12948;DHT22;6539;49.476;8.484;2022-09-12T02:13:35;17.60;99.90
12948;DHT22;6539;49.476;8.484;2022-09-12T02:19:11;17.70;99.90
12948;DHT22;6539;49.476;8.484;2022-09-12T02:21:45;17.80;99.90
12948;DHT22;6539;49.476;8.484;2022-09-12T02:24:29;17.60;99.90
12948;DHT22;6539;49.476;8.484;2022-09-12T02:27:08;18.00;99.90
12948;DHT22;6539;49.476;8.484;2022-09-12T02:32:27;17.90;99.90
12948;DHT22;6539;49.476;8.484;2022-09-12T02:35:06;17.10;99.90
12948;DHT22;6539;49.476;8.484;2022-09-12T02:40:28;17.60;99.90
12948;DHT22;6539;49.476;8.484;2022-09-12T02:42:57;17.50;99.90
12948;DHT22;6539;49.476;8.484;2022-09-12T02:53:06;17.60;99.90
12948;DHT22;6539;49.476;8.484;2022-09-12T02:55:35;17.30;99.90
12948;DHT22;6539;49.476;8.484;2022-09-12T02:58:06;17.60;99.90
12948;DHT22;6539;49.476;8.484;2022-09-12T03:00:39;17.70;99.90
12948;DHT22;6539;49.476;8.484;2022-09-12T03:06:01;17.70;99.90
12948;DHT22;6539;49.476;8.484;2022-09-12T03:08:58;17.30;99.90
12948;DHT22;6539;49.476;8.484;2022-09-12T03:14:21;17.50;99.90
12948;DHT22;6539;49.476;8.484;2022-09-12T03:17:15;17.50;99.90
12948;DHT22;6539;49.476;8.484;2022-09-12T03:20:14;17.10;99.90
12948;DHT22;6539;49.476;8.484;2022-09-12T03:22:56;17.40;99.90
12948;DHT22;6539;49.476;8.484;2022-09-12T03:25:52;17.10;99.90
12948;DHT22;6539;49.476;8.484;2022-09-12T03:28:26;17.40;99.90
12948;DHT22;6539;49.476;8.484;2022-09-12T03:30:55;17.60;99.90
12948;DHT22;6539;49.476;8.484;2022-09-12T03:33:25;17.40;99.90
12948;DHT22;6539;49.476;8.484;2022-09-12T03:35:54;17.10;99.90
12948;DHT22;6539;49.476;8.484;2022-09-12T03:38:20;17.10;99.90
12948;DHT22;6539;49.476;8.484;2022-09-12T03:40:46;17.60;99.90
12948;DHT22;6539;49.476;8.484;2022-09-12T03:43:14;17.40;99.90
12948;DHT22;6539;49.476;8.484;2022-09-12T03:45:39;17.50;99.90
12948;DHT22;6539;49.476;8.484;2022-09-12T03:48:08;17.10;99.90
12948;DHT22;6539;49.476;8.484;2022-09-12T03:50:34;17.00;99.90
12948;DHT22;6539;49.476;8.484;2022-09-12T03:53:02;17.10;99.90
12948;DHT22;6539;49.476;8.484;2022-09-12T03:55:28;17.40;99.90
12948;DHT22;6539;49.476;8.484;2022-09-12T03:57:54;16.70;99.90
12948;DHT22;6539;49.476;8.484;2022-09-12T04:00:21;17.30;99.90
12948;DHT22;6539;49.476;8.484;2022-09-12T04:02:53;17.40;99.90
12948;DHT22;6539;49.476;8.484;2022-09-12T04:05:22;17.20;99.90
12948;DHT22;6539;49.476;8.484;2022-09-12T04:07:49;17.40;99.90
12948;DHT22;6539;49.476;8.484;2022-09-12T04:10:16;17.10;99.90
12948;DHT22;6539;49.476;8.484;2022-09-12T04:12:44;17.10;99.90
12948;DHT22;6539;49.476;8.484;2022-09-12T04:17:36;16.90;99.90
12948;DHT22;6539;49.476;8.484;2022-09-12T04:20:04;17.10;99.90
12948;DHT22;6539;49.476;8.484;2022-09-12T04:22:33;16.90;99.90
12948;DHT22;6539;49.476;8.484;2022-09-12T04:27:25;16.70;99.90
12948;DHT22;6539;49.476;8.484;2022-09-12T04:29:51;16.60;99.90
12948;DHT22;6539;49.476;8.484;2022-09-12T04:34:44;16.80;99.90
12948;DHT22;6539;49.476;8.484;2022-09-12T04:37:11;17.00;99.90
12948;DHT22;6539;49.476;8.484;2022-09-12T04:39:39;16.50;99.90
12948;DHT22;6539;49.476;8.484;2022-09-12T04:42:07;16.80;99.90
12948;DHT22;6539;49.476;8.484;2022-09-12T04:47:01;17.00;99.90
12948;DHT22;6539;49.476;8.484;2022-09-12T04:51:56;16.90;99.90
12948;DHT22;6539;49.476;8.484;2022-09-12T04:54:24;17.30;99.90
12948;DHT22;6539;49.476;8.484;2022-09-12T04:56:50;16.90;99.90
12948;DHT22;6539;49.476;8.484;2022-09-12T04:59:21;17.20;99.90
12948;DHT22;6539;49.476;8.484;2022-09-12T05:01:47;17.00;99.90
12948;DHT22;6539;49.476;8.484;2022-09-12T05:04:13;17.00;99.90
12948;DHT22;6539;49.476;8.484;2022-09-12T05:06:40;16.90;99.90
12948;DHT22;6539;49.476;8.484;2022-09-12T05:09:10;17.00;99.90
12948;DHT22;6539;49.476;8.484;2022-09-12T05:11:39;17.00;99.90
12948;DHT22;6539;49.476;8.484;2022-09-12T05:14:10;17.00;99.90
12948;DHT22;6539;49.476;8.484;2022-09-12T05:16:38;16.70;99.90
12948;DHT22;6539;49.476;8.484;2022-09-12T05:19:05;17.00;99.90
12948;DHT22;6539;49.476;8.484;2022-09-12T05:21:31;17.20;99.90
12948;DHT22;6539;49.476;8.484;2022-09-12T05:23:59;16.80;99.90
12948;DHT22;6539;49.476;8.484;2022-09-12T05:28:53;16.90;99.90
12948;DHT22;6539;49.476;8.484;2022-09-12T05:31:25;16.80;99.90
12948;DHT22;6539;49.476;8.484;2022-09-12T05:33:54;16.80;99.90
12948;DHT22;6539;49.476;8.484;2022-09-12T05:36:27;17.20;99.90
12948;DHT22;6539;49.476;8.484;2022-09-12T05:38:58;16.70;99.90
12948;DHT22;6539;49.476;8.484;2022-09-12T05:41:29;16.80;99.90
12948;DHT22;6539;49.476;8.484;2022-09-12T05:44:00;16.90;99.90
12948;DHT22;6539;49.476;8.484;2022-09-12T05:46:36;16.90;99.90
12948;DHT22;6539;49.476;8.484;2022-09-12T05:49:07;17.00;99.90
12948;DHT22;6539;49.476;8.484;2022-09-12T05:51:41;16.70;99.90
12948;DHT22;6539;49.476;8.484;2022-09-12T05:54:11;17.20;99.90
12948;DHT22;6539;49.476;8.484;2022-09-12T05:56:44;16.70;99.90
12948;DHT22;6539;49.476;8.484;2022-09-12T05:59:18;17.10;99.90
12948;DHT22;6539;49.476;8.484;2022-09-12T06:01:48;16.80;99.90
12948;DHT22;6539;49.476;8.484;2022-09-12T06:04:14;17.70;99.90
12948;DHT22;6539;49.476;8.484;2022-09-12T06:06:43;18.40;99.90
12948;DHT22;6539;49.476;8.484;2022-09-12T06:09:11;18.90;99.90
12948;DHT22;6539;49.476;8.484;2022-09-12T06:11:41;18.90;99.90
12948;DHT22;6539;49.476;8.484;2022-09-12T06:14:12;19.30;99.90
12948;DHT22;6539;49.476;8.484;2022-09-12T06:16:39;19.70;99.90
12948;DHT22;6539;49.476;8.484;2022-09-12T06:19:21;20.30;99.90
12948;DHT22;6539;49.476;8.484;2022-09-12T06:21:52;20.20;99.90
12948;DHT22;6539;49.476;8.484;2022-09-12T06:24:19;20.50;99.90
12948;DHT22;6539;49.476;8.484;2022-09-12T06:26:48;20.70;99.90
12948;DHT22;6539;49.476;8.484;2022-09-12T06:29:16;21.80;99.90
12948;DHT22;6539;49.476;8.484;2022-09-12T06:31:47;21.40;99.90
12948;DHT22;6539;49.476;8.484;2022-09-12T06:34:16;21.70;99.90
12948;DHT22;6539;49.476;8.484;2022-09-12T06:36:44;22.00;99.90
12948;DHT22;6539;49.476;8.484;2022-09-12T06:41:40;22.30;99.90
12948;DHT22;6539;49.476;8.484;2022-09-12T06:44:16;22.40;99.90
12948;DHT22;6539;49.476;8.484;2022-09-12T06:46:44;22.90;99.90
12948;DHT22;6539;49.476;8.484;2022-09-12T06:49:12;22.90;99.90
12948;DHT22;6539;49.476;8.484;2022-09-12T06:51:42;23.30;99.90
12948;DHT22;6539;49.476;8.484;2022-09-12T06:54:13;23.30;99.90
12948;DHT22;6539;49.476;8.484;2022-09-12T06:56:41;23.30;99.90
12948;DHT22;6539;49.476;8.484;2022-09-12T06:59:11;23.40;99.90
12948;DHT22;6539;49.476;8.484;2022-09-12T07:01:39;23.30;99.90
12948;DHT22;6539;49.476;8.484;2022-09-12T07:04:08;23.60;99.90
12948;DHT22;6539;49.476;8.484;2022-09-12T07:06:39;24.00;99.90
12948;DHT22;6539;49.476;8.484;2022-09-12T07:09:10;24.30;99.90
12948;DHT22;6539;49.476;8.484;2022-09-12T07:11:41;24.60;99.90
12948;DHT22;6539;49.476;8.484;2022-09-12T07:14:09;24.60;99.90
12948;DHT22;6539;49.476;8.484;2022-09-12T07:16:39;24.30;99.90
12948;DHT22;6539;49.476;8.484;2022-09-12T07:19:07;24.30;99.90
12948;DHT22;6539;49.476;8.484;2022-09-12T07:21:33;24.80;99.90
12948;DHT22;6539;49.476;8.484;2022-09-12T07:24:04;25.30;99.90
12948;DHT22;6539;49.476;8.484;2022-09-12T07:26:33;25.70;99.90
12948;DHT22;6539;49.476;8.484;2022-09-12T07:29:04;26.00;99.90
12948;DHT22;6539;49.476;8.484;2022-09-12T07:31:37;26.20;99.90
12948;DHT22;6539;49.476;8.484;2022-09-12T07:34:05;26.10;99.90
12948;DHT22;6539;49.476;8.484;2022-09-12T07:36:33;26.20;99.90
12948;DHT22;6539;49.476;8.484;2022-09-12T07:39:02;25.90;99.90
12948;DHT22;6539;49.476;8.484;2022-09-12T07:41:30;25.80;99.90
12948;DHT22;6539;49.476;8.484;2022-09-12T07:43:59;25.70;99.90
12948;DHT22;6539;49.476;8.484;2022-09-12T07:46:31;25.50;99.90
12948;DHT22;6539;49.476;8.484;2022-09-12T07:48:59;25.60;99.90
12948;DHT22;6539;49.476;8.484;2022-09-12T07:51:27;25.70;99.90
12948;DHT22;6539;49.476;8.484;2022-09-12T07:53:54;26.00;99.90
12948;DHT22;6539;49.476;8.484;2022-09-12T07:56:21;26.40;99.90
12948;DHT22;6539;49.476;8.484;2022-09-12T07:58:47;26.80;99.90
12948;DHT22;6539;49.476;8.484;2022-09-12T08:01:18;26.80;99.90
12948;DHT22;6539;49.476;8.484;2022-09-12T08:03:52;27.10;99.90
12948;DHT22;6539;49.476;8.484;2022-09-12T08:06:21;27.30;99.90
12948;DHT22;6539;49.476;8.484;2022-09-12T08:08:49;26.80;99.90
12948;DHT22;6539;49.476;8.484;2022-09-12T08:11:17;26.90;99.90
12948;DHT22;6539;49.476;8.484;2022-09-12T08:13:44;26.90;99.90
12948;DHT22;6539;49.476;8.484;2022-09-12T08:16:19;27.10;99.90
12948;DHT22;6539;49.476;8.484;2022-09-12T08:18:46;27.00;99.90
12948;DHT22;6539;49.476;8.484;2022-09-12T08:21:23;26.70;99.90
12948;DHT22;6539;49.476;8.484;2022-09-12T08:24:01;26.70;99.90
12948;DHT22;6539;49.476;8.484;2022-09-12T08:26:30;27.00;99.90
12948;DHT22;6539;49.476;8.484;2022-09-12T08:28:57;27.50;99.90
12948;DHT22;6539;49.476;8.484;2022-09-12T08:31:24;27.30;99.90
12948;DHT22;6539;49.476;8.484;2022-09-12T08:33:55;27.70;99.90
12948;DHT22;6539;49.476;8.484;2022-09-12T08:36:26;27.80;99.90
12948;DHT22;6539;49.476;8.484;2022-09-12T08:38:57;27.60;99.90
12948;DHT22;6539;49.476;8.484;2022-09-12T08:41:48;27.60;99.90
12948;DHT22;6539;49.476;8.484;2022-09-12T08:52:29;27.40;99.90
12948;DHT22;6539;49.476;8.484;2022-09-12T08:54:55;27.20;99.90
12948;DHT22;6539;49.476;8.484;2022-09-12T08:57:24;27.40;99.90
12948;DHT22;6539;49.476;8.484;2022-09-12T08:59:52;27.40;99.90
12948;DHT22;6539;49.476;8.484;2022-09-12T09:28:55;28.80;99.90
12948;DHT22;6539;49.476;8.484;2022-09-12T09:31:27;28.50;99.90
12948;DHT22;6539;49.476;8.484;2022-09-12T09:34:12;28.80;99.90
12948;DHT22;6539;49.476;8.484;2022-09-12T09:42:37;28.20;99.90
12948;DHT22;6539;49.476;8.484;2022-09-12T09:45:13;27.60;99.90
12948;DHT22;6539;49.476;8.484;2022-09-12T09:47:47;27.60;99.90
12948;DHT22;6539;49.476;8.484;2022-09-12T09:50:19;27.70;99.90
12948;DHT22;6539;49.476;8.484;2022-09-12T09:52:49;27.40;99.90
12948;DHT22;6539;49.476;8.484;2022-09-12T09:55:23;27.80;99.90
12948;DHT22;6539;49.476;8.484;2022-09-12T09:57:57;27.70;99.90
12948;DHT22;6539;49.476;8.484;2022-09-12T10:00:30;27.60;99.90
12948;DHT22;6539;49.476;8.484;2022-09-12T10:05:50;27.60;99.90
12948;DHT22;6539;49.476;8.484;2022-09-12T10:10:59;27.00;99.90
12948;DHT22;6539;49.476;8.484;2022-09-12T10:13:57;27.60;99.90
12948;DHT22;6539;49.476;8.484;2022-09-12T10:19:01;27.80;99.90
12948;DHT22;6539;49.476;8.484;2022-09-12T10:29:44;27.90;99.90
12948;DHT22;6539;49.476;8.484;2022-09-12T10:32:23;28.00;99.90
12948;DHT22;6539;49.476;8.484;2022-09-12T10:35:01;28.00;99.90
12948;DHT22;6539;49.476;8.484;2022-09-12T10:37:37;28.00;99.90
12948;DHT22;6539;49.476;8.484;2022-09-12T10:40:18;28.10;99.90
12948;DHT22;6539;49.476;8.484;2022-09-12T10:42:57;28.50;99.90
12948;DHT22;6539;49.476;8.484;2022-09-12T10:47:58;28.70;99.90
12948;DHT22;6539;49.476;8.484;2022-09-12T10:50:29;28.80;99.90
12948;DHT22;6539;49.476;8.484;2022-09-12T10:53:17;28.60;99.90
12948;DHT22;6539;49.476;8.484;2022-09-12T10:56:20;28.30;99.90
12948;DHT22;6539;49.476;8.484;2022-09-12T11:02:24;28.60;99.30
12948;DHT22;6539;49.476;8.484;2022-09-12T11:11:15;28.30;99.10
12948;DHT22;6539;49.476;8.484;2022-09-12T11:20:18;28.80;98.40
12948;DHT22;6539;49.476;8.484;2022-09-12T11:28:58;28.50;99.00
12948;DHT22;6539;49.476;8.484;2022-09-12T11:46:28;28.30;97.40
12948;DHT22;6539;49.476;8.484;2022-09-12T11:51:54;28.30;97.70
12948;DHT22;6539;49.476;8.484;2022-09-12T11:57:57;28.20;97.40
12948;DHT22;6539;49.476;8.484;2022-09-12T12:00:33;28.30;96.80
12948;DHT22;6539;49.476;8.484;2022-09-12T12:05:52;28.40;97.30
12948;DHT22;6539;49.476;8.484;2022-09-12T12:08:21;28.10;97.90
12948;DHT22;6539;49.476;8.484;2022-09-12T12:10:54;28.10;98.20
12948;DHT22;6539;49.476;8.484;2022-09-12T12:13:30;28.00;97.70
12948;DHT22;6539;49.476;8.484;2022-09-12T12:16:13;28.10;97.70
12948;DHT22;6539;49.476;8.484;2022-09-12T12:18:53;28.20;97.40
12948;DHT22;6539;49.476;8.484;2022-09-12T12:26:56;28.10;97.50
12948;DHT22;6539;49.476;8.484;2022-09-12T12:29:43;28.00;97.60
12948;DHT22;6539;49.476;8.484;2022-09-12T12:34:42;28.00;97.90
12948;DHT22;6539;49.476;8.484;2022-09-12T12:52:49;28.20;95.80
12948;DHT22;6539;49.476;8.484;2022-09-12T12:55:37;28.10;95.70
12948;DHT22;6539;49.476;8.484;2022-09-12T12:58:33;28.10;96.00
12948;DHT22;6539;49.476;8.484;2022-09-12T13:01:14;28.30;95.70
12948;DHT22;6539;49.476;8.484;2022-09-12T13:03:56;28.20;95.60
12948;DHT22;6539;49.476;8.484;2022-09-12T13:06:35;28.00;95.40
12948;DHT22;6539;49.476;8.484;2022-09-12T13:09:20;27.90;95.10
12948;DHT22;6539;49.476;8.484;2022-09-12T13:12:05;27.90;95.60
12948;DHT22;6539;49.476;8.484;2022-09-12T13:14:47;27.90;95.00
12948;DHT22;6539;49.476;8.484;2022-09-12T13:17:34;28.00;95.30
12948;DHT22;6539;49.476;8.484;2022-09-12T13:20:13;27.90;94.90
12948;DHT22;6539;49.476;8.484;2022-09-12T13:22:48;27.90;95.60
12948;DHT22;6539;49.476;8.484;2022-09-12T13:25:36;27.80;95.40
12948;DHT22;6539;49.476;8.484;2022-09-12T13:30:41;27.80;96.40
12948;DHT22;6539;49.476;8.484;2022-09-12T13:40:17;27.90;96.10
12948;DHT22;6539;49.476;8.484;2022-09-12T13:45:38;27.50;95.20
12948;DHT22;6539;49.476;8.484;2022-09-12T13:48:06;27.60;95.20
12948;DHT22;6539;49.476;8.484;2022-09-12T13:50:54;27.70;95.40
12948;DHT22;6539;49.476;8.484;2022-09-12T13:53:35;27.50;95.00
12948;DHT22;6539;49.476;8.484;2022-09-12T13:56:14;27.60;95.90
12948;DHT22;6539;49.476;8.484;2022-09-12T13:58:58;27.70;96.40
12948;DHT22;6539;49.476;8.484;2022-09-12T14:01:40;27.70;96.20
12948;DHT22;6539;49.476;8.484;2022-09-12T14:07:19;27.40;96.20
12948;DHT22;6539;49.476;8.484;2022-09-12T14:09:58;27.40;95.70
12948;DHT22;6539;49.476;8.484;2022-09-12T14:12:33;27.40;94.60
12948;DHT22;6539;49.476;8.484;2022-09-12T14:15:05;27.40;95.50
12948;DHT22;6539;49.476;8.484;2022-09-12T14:17:36;27.30;95.60
12948;DHT22;6539;49.476;8.484;2022-09-12T14:20:13;26.60;94.10
12948;DHT22;6539;49.476;8.484;2022-09-12T14:22:43;26.90;94.40
12948;DHT22;6539;49.476;8.484;2022-09-12T14:25:20;27.00;94.20
12948;DHT22;6539;49.476;8.484;2022-09-12T14:27:54;27.00;94.00
12948;DHT22;6539;49.476;8.484;2022-09-12T14:30:29;27.00;94.20
12948;DHT22;6539;49.476;8.484;2022-09-12T14:35:46;27.00;96.00
12948;DHT22;6539;49.476;8.484;2022-09-12T14:38:36;27.00;96.30
12948;DHT22;6539;49.476;8.484;2022-09-12T14:41:09;26.90;94.30
12948;DHT22;6539;49.476;8.484;2022-09-12T14:43:43;26.70;94.10
12948;DHT22;6539;49.476;8.484;2022-09-12T14:46:38;26.60;95.00
12948;DHT22;6539;49.476;8.484;2022-09-12T14:51:42;26.50;94.50
12948;DHT22;6539;49.476;8.484;2022-09-12T14:57:03;26.30;93.50
12948;DHT22;6539;49.476;8.484;2022-09-12T14:59:49;26.20;93.30
12948;DHT22;6539;49.476;8.484;2022-09-12T15:02:23;26.20;94.70
12948;DHT22;6539;49.476;8.484;2022-09-12T15:07:42;26.20;96.00
12948;DHT22;6539;49.476;8.484;2022-09-12T15:15:41;27.20;95.50
12948;DHT22;6539;49.476;8.484;2022-09-12T15:18:08;25.90;94.80
12948;DHT22;6539;49.476;8.484;2022-09-12T15:20:41;26.00;95.30
12948;DHT22;6539;49.476;8.484;2022-09-12T15:23:16;25.90;95.50
12948;DHT22;6539;49.476;8.484;2022-09-12T15:25:47;25.80;95.30
12948;DHT22;6539;49.476;8.484;2022-09-12T15:28:20;25.80;96.00
12948;DHT22;6539;49.476;8.484;2022-09-12T15:30:52;25.80;95.90
12948;DHT22;6539;49.476;8.484;2022-09-12T15:33:25;25.80;96.30
12948;DHT22;6539;49.476;8.484;2022-09-12T15:35:53;25.80;96.50
12948;DHT22;6539;49.476;8.484;2022-09-12T15:38:19;25.80;96.20
12948;DHT22;6539;49.476;8.484;2022-09-12T15:40:48;25.70;95.90
12948;DHT22;6539;49.476;8.484;2022-09-12T15:43:18;25.70;96.30
12948;DHT22;6539;49.476;8.484;2022-09-12T15:45:47;25.70;95.70
12948;DHT22;6539;49.476;8.484;2022-09-12T15:48:16;25.70;95.30
12948;DHT22;6539;49.476;8.484;2022-09-12T15:50:42;25.70;96.00
12948;DHT22;6539;49.476;8.484;2022-09-12T15:53:15;25.70;95.40
12948;DHT22;6539;49.476;8.484;2022-09-12T15:55:41;25.60;95.80
12948;DHT22;6539;49.476;8.484;2022-09-12T15:58:09;25.50;95.80
12948;DHT22;6539;49.476;8.484;2022-09-12T16:00:35;25.60;96.00
12948;DHT22;6539;49.476;8.484;2022-09-12T16:03:01;25.60;96.00
12948;DHT22;6539;49.476;8.484;2022-09-12T16:07:54;25.40;95.10
12948;DHT22;6539;49.476;8.484;2022-09-12T16:10:23;25.40;95.50
12948;DHT22;6539;49.476;8.484;2022-09-12T16:12:53;25.40;95.60
12948;DHT22;6539;49.476;8.484;2022-09-12T16:15:23;25.40;95.80
12948;DHT22;6539;49.476;8.484;2022-09-12T16:17:50;25.50;96.20
12948;DHT22;6539;49.476;8.484;2022-09-12T16:20:17;25.40;96.40
12948;DHT22;6539;49.476;8.484;2022-09-12T16:22:43;25.50;98.10
12948;DHT22;6539;49.476;8.484;2022-09-12T16:25:09;25.40;98.30
12948;DHT22;6539;49.476;8.484;2022-09-12T16:27:36;25.40;96.80
12948;DHT22;6539;49.476;8.484;2022-09-12T16:30:04;25.40;97.10
12948;DHT22;6539;49.476;8.484;2022-09-12T16:32:34;25.30;97.00
12948;DHT22;6539;49.476;8.484;2022-09-12T16:35:00;25.40;97.20
12948;DHT22;6539;49.476;8.484;2022-09-12T16:37:26;25.40;97.50
12948;DHT22;6539;49.476;8.484;2022-09-12T16:39:55;25.30;96.60
12948;DHT22;6539;49.476;8.484;2022-09-12T16:42:21;25.20;96.90
12948;DHT22;6539;49.476;8.484;2022-09-12T16:44:47;25.20;97.60
12948;DHT22;6539;49.476;8.484;2022-09-12T16:47:15;25.20;98.10
12948;DHT22;6539;49.476;8.484;2022-09-12T16:49:41;25.20;98.90
12948;DHT22;6539;49.476;8.484;2022-09-12T16:52:07;25.20;98.50
12948;DHT22;6539;49.476;8.484;2022-09-12T16:54:35;25.20;98.50
12948;DHT22;6539;49.476;8.484;2022-09-12T16:57:01;25.10;98.70
12948;DHT22;6539;49.476;8.484;2022-09-12T16:59:32;25.10;97.80
12948;DHT22;6539;49.476;8.484;2022-09-12T17:02:01;25.10;97.00
12948;DHT22;6539;49.476;8.484;2022-09-12T17:04:27;25.10;97.60
12948;DHT22;6539;49.476;8.484;2022-09-12T17:06:53;25.10;97.60
12948;DHT22;6539;49.476;8.484;2022-09-12T17:09:19;25.10;98.10
12948;DHT22;6539;49.476;8.484;2022-09-12T17:11:49;24.80;97.70
12948;DHT22;6539;49.476;8.484;2022-09-12T17:14:17;25.00;97.70
12948;DHT22;6539;49.476;8.484;2022-09-12T17:16:46;25.10;98.60
12948;DHT22;6539;49.476;8.484;2022-09-12T17:19:19;24.90;98.50
12948;DHT22;6539;49.476;8.484;2022-09-12T17:21:48;24.90;98.70
12948;DHT22;6539;49.476;8.484;2022-09-12T17:24:19;25.00;98.90
12948;DHT22;6539;49.476;8.484;2022-09-12T17:26:46;24.80;99.20
12948;DHT22;6539;49.476;8.484;2022-09-12T17:29:17;24.70;99.20
12948;DHT22;6539;49.476;8.484;2022-09-12T17:31:45;24.80;99.40
12948;DHT22;6539;49.476;8.484;2022-09-12T17:34:14;24.80;99.90
12948;DHT22;6539;49.476;8.484;2022-09-12T17:36:41;24.80;99.90
12948;DHT22;6539;49.476;8.484;2022-09-12T17:39:10;24.70;99.90
12948;DHT22;6539;49.476;8.484;2022-09-12T17:41:44;24.50;99.90
12948;DHT22;6539;49.476;8.484;2022-09-12T17:44:11;24.50;99.90
12948;DHT22;6539;49.476;8.484;2022-09-12T17:46:42;24.50;99.90
12948;DHT22;6539;49.476;8.484;2022-09-12T17:49:12;24.50;99.90
12948;DHT22;6539;49.476;8.484;2022-09-12T17:51:43;24.40;99.90
12948;DHT22;6539;49.476;8.484;2022-09-12T17:54:14;24.00;99.90
12948;DHT22;6539;49.476;8.484;2022-09-12T17:56:44;24.30;99.90
12948;DHT22;6539;49.476;8.484;2022-09-12T17:59:14;24.20;99.90
12948;DHT22;6539;49.476;8.484;2022-09-12T18:01:42;24.20;99.90
12948;DHT22;6539;49.476;8.484;2022-09-12T18:04:30;24.10;99.90
12948;DHT22;6539;49.476;8.484;2022-09-12T18:06:56;24.10;99.90
12948;DHT22;6539;49.476;8.484;2022-09-12T18:09:25;24.00;99.90
12948;DHT22;6539;49.476;8.484;2022-09-12T18:11:51;23.90;99.90
12948;DHT22;6539;49.476;8.484;2022-09-12T18:14:20;23.90;99.90
12948;DHT22;6539;49.476;8.484;2022-09-12T18:16:46;23.80;99.90
12948;DHT22;6539;49.476;8.484;2022-09-12T18:19:13;23.80;99.90
12948;DHT22;6539;49.476;8.484;2022-09-12T18:21:41;23.80;99.90
12948;DHT22;6539;49.476;8.484;2022-09-12T18:24:10;23.70;99.90
12948;DHT22;6539;49.476;8.484;2022-09-12T18:26:36;23.70;99.90
12948;DHT22;6539;49.476;8.484;2022-09-12T18:29:05;23.60;99.90
12948;DHT22;6539;49.476;8.484;2022-09-12T18:31:34;23.60;99.90
12948;DHT22;6539;49.476;8.484;2022-09-12T18:34:07;23.50;99.90
12948;DHT22;6539;49.476;8.484;2022-09-12T18:36:37;23.50;99.90
12948;DHT22;6539;49.476;8.484;2022-09-12T18:39:07;23.50;99.90
12948;DHT22;6539;49.476;8.484;2022-09-12T18:41:36;23.40;99.90
12948;DHT22;6539;49.476;8.484;2022-09-12T18:44:06;23.40;99.90
12948;DHT22;6539;49.476;8.484;2022-09-12T18:46:33;23.30;99.90
12948;DHT22;6539;49.476;8.484;2022-09-12T18:49:04;23.40;99.90
12948;DHT22;6539;49.476;8.484;2022-09-12T18:51:35;23.40;99.90
12948;DHT22;6539;49.476;8.484;2022-09-12T18:54:06;23.30;99.90
12948;DHT22;6539;49.476;8.484;2022-09-12T18:56:36;23.30;99.90
12948;DHT22;6539;49.476;8.484;2022-09-12T18:59:07;23.20;99.90
12948;DHT22;6539;49.476;8.484;2022-09-12T19:01:42;23.20;99.90
12948;DHT22;6539;49.476;8.484;2022-09-12T19:04:12;23.10;99.90
12948;DHT22;6539;49.476;8.484;2022-09-12T19:06:40;23.10;99.90
12948;DHT22;6539;49.476;8.484;2022-09-12T19:09:09;23.20;99.90
12948;DHT22;6539;49.476;8.484;2022-09-12T19:11:40;23.10;99.90
12948;DHT22;6539;49.476;8.484;2022-09-12T19:14:18;23.10;99.90
12948;DHT22;6539;49.476;8.484;2022-09-12T19:16:50;23.00;99.90
12948;DHT22;6539;49.476;8.484;2022-09-12T19:19:17;23.10;99.90
12948;DHT22;6539;49.476;8.484;2022-09-12T19:21:45;23.00;99.90
12948;DHT22;6539;49.476;8.484;2022-09-12T19:24:11;23.20;99.90
12948;DHT22;6539;49.476;8.484;2022-09-12T19:26:40;23.00;99.90
12948;DHT22;6539;49.476;8.484;2022-09-12T19:29:07;23.00;99.90
12948;DHT22;6539;49.476;8.484;2022-09-12T19:31:35;22.90;99.90
12948;DHT22;6539;49.476;8.484;2022-09-12T19:34:02;22.90;99.90
12948;DHT22;6539;49.476;8.484;2022-09-12T19:36:32;22.90;99.90
12948;DHT22;6539;49.476;8.484;2022-09-12T19:38:59;22.80;99.90
12948;DHT22;6539;49.476;8.484;2022-09-12T19:41:25;22.80;99.90
12948;DHT22;6539;49.476;8.484;2022-09-12T19:43:50;22.80;99.90
12948;DHT22;6539;49.476;8.484;2022-09-12T19:46:18;22.70;99.90
12948;DHT22;6539;49.476;8.484;2022-09-12T19:48:45;22.70;99.90
12948;DHT22;6539;49.476;8.484;2022-09-12T19:51:12;22.70;99.90
12948;DHT22;6539;49.476;8.484;2022-09-12T19:53:44;22.70;99.90
12948;DHT22;6539;49.476;8.484;2022-09-12T19:56:12;22.70;99.90
12948;DHT22;6539;49.476;8.484;2022-09-12T19:58:40;22.60;99.90
12948;DHT22;6539;49.476;8.484;2022-09-12T20:01:17;22.50;99.90
12948;DHT22;6539;49.476;8.484;2022-09-12T20:03:49;22.70;99.90
12948;DHT22;6539;49.476;8.484;2022-09-12T20:06:18;22.60;99.90